Time;durP1;ratioP1;P1;durP2;ratioP2;P2;SDS_P1;SDS_P2;PMS_P1;PMS_P2;Temp;Humidity;BMP_temperature;BMP_pressure;BME280_temperature;BME280_humidity;BME280_pressure;Samples;Min_cycle;Max_cycle;Signal;HPM_P1;HPM_P2
2023/09/02 00:01:49;;;;;;;4.83;1.47;;;;;;;25.12;47.47;99228.19;4805778;29;20186;-84
2023/09/02 00:04:15;;;;;;;3.20;1.80;;;;;;;25.12;47.45;99230.03;4790813;29;20196;-84
2023/09/02 00:06:42;;;;;;;7.27;1.60;;;;;;;25.13;47.61;99226.34;4806909;29;20269;-84
2023/09/02 00:09:07;;;;;;;2.13;1.27;;;;;;;25.19;47.19;99233.69;4806903;29;20221;-83
2023/09/02 00:11:34;;;;;;;2.03;1.00;;;;;;;25.23;46.69;99227.84;4806553;29;20187;-84
2023/09/02 00:14:01;;;;;;;4.23;1.30;;;;;;;25.32;46.24;99225.97;4806631;29;20255;-84
2023/09/02 00:16:27;;;;;;;2.60;1.20;;;;;;;25.37;45.79;99224.44;4805360;29;20641;-84
2023/09/02 00:18:53;;;;;;;3.03;1.50;;;;;;;25.50;45.47;99223.91;4806630;29;20206;-83
2023/09/02 00:21:19;;;;;;;5.23;1.47;;;;;;;25.52;45.81;99221.94;4806364;29;20214;-83
2023/09/02 00:23:47;;;;;;;4.03;1.50;;;;;;;25.57;45.28;99220.41;4805510;29;20259;-84
2023/09/02 00:26:15;;;;;;;3.40;1.27;;;;;;;25.68;45.07;99229.91;4806308;29;20191;-84
2023/09/02 00:28:41;;;;;;;3.03;1.30;;;;;;;25.72;45.03;99225.00;4806636;29;20293;-83
2023/09/02 00:31:08;;;;;;;2.17;1.17;;;;;;;25.76;44.67;99231.72;4806386;29;20183;-84
2023/09/02 00:33:34;;;;;;;3.63;1.30;;;;;;;25.83;44.54;99233.53;4806437;29;20183;-84
2023/09/02 00:36:00;;;;;;;2.40;1.50;;;;;;;25.86;44.20;99233.19;4806593;29;20182;-84
2023/09/02 00:38:27;;;;;;;4.13;1.67;;;;;;;25.89;44.20;99222.06;4805339;29;20268;-84
2023/09/02 00:41:02;;;;;;;3.17;1.57;;;;;;;25.94;43.95;99226.94;4790633;29;20193;-84
2023/09/02 00:43:30;;;;;;;6.20;1.47;;;;;;;25.96;43.72;99225.75;4790212;29;20613;-84
2023/09/02 00:45:57;;;;;;;2.47;1.30;;;;;;;26.03;43.60;99223.19;4790239;29;20190;-84
2023/09/02 00:48:22;;;;;;;2.70;1.50;;;;;;;26.08;43.23;99221.63;4806066;29;20293;-83
2023/09/02 00:50:48;;;;;;;1.63;1.10;;;;;;;26.05;43.69;99222.00;4806365;29;20277;-84
2023/09/02 00:53:16;;;;;;;3.33;1.40;;;;;;;26.05;43.64;99224.69;4806023;29;20222;-83
2023/09/02 00:55:43;;;;;;;3.60;1.33;;;;;;;26.06;43.68;99222.84;4806346;29;20658;-84
2023/09/02 00:58:08;;;;;;;3.27;1.37;;;;;;;26.04;43.30;99223.03;4804980;29;20234;-84
2023/09/02 01:00:34;;;;;;;2.53;1.13;;;;;;;26.02;43.41;99224.22;4806548;29;20186;-84
2023/09/02 01:02:59;;;;;;;3.53;1.17;;;;;;;26.01;43.67;99228.75;4805067;29;20197;-84
2023/09/02 01:05:25;;;;;;;3.63;1.50;;;;;;;26.00;43.58;99224.38;4805037;29;20197;-84
2023/09/02 01:07:53;;;;;;;4.03;1.33;;;;;;;25.98;43.84;99226.41;4805797;29;20214;-84
2023/09/02 01:10:20;;;;;;;2.47;1.40;;;;;;;25.98;44.01;99231.78;4805802;29;20197;-84
2023/09/02 01:12:47;;;;;;;2.50;1.40;;;;;;;25.99;43.88;99229.94;4805970;29;20197;-84
2023/09/02 01:15:13;;;;;;;2.97;1.50;;;;;;;25.95;43.87;99229.44;4805986;29;20189;-84
2023/09/02 01:17:39;;;;;;;4.03;1.50;;;;;;;25.95;43.85;99221.38;4806544;29;20250;-84
2023/09/02 01:20:09;;;;;;;3.63;1.70;;;;;;;25.97;43.75;99226.59;4806034;29;20218;-84
2023/09/02 01:22:49;;;;;;;3.17;1.63;;;;;;;26.00;43.70;99227.06;4806078;29;20179;-84
2023/09/02 01:25:52;;;;;;;2.83;1.33;;;;;;;25.99;43.63;99228.09;4806207;29;20578;-84
2023/09/02 01:28:24;;;;;;;2.50;1.43;;;;;;;25.95;43.75;99229.44;4805881;29;20202;-84
2023/09/02 01:30:54;;;;;;;1.97;1.20;;;;;;;25.94;43.86;99226.94;4806103;29;20205;-84
2023/09/02 01:33:23;;;;;;;2.03;1.30;;;;;;;25.91;43.94;99227.28;4808423;29;20672;-84
2023/09/02 01:35:51;;;;;;;3.37;1.57;;;;;;;25.88;44.15;99223.09;4809365;29;20247;-84
2023/09/02 01:38:21;;;;;;;5.20;1.37;;;;;;;25.87;44.01;99213.38;4809302;29;20193;-84
2023/09/02 01:40:48;;;;;;;2.70;1.20;;;;;;;25.83;44.13;99225.47;4810077;29;20206;-84
2023/09/02 01:43:20;;;;;;;3.07;1.60;;;;;;;25.83;44.05;99214.75;4809103;29;20191;-84
2023/09/02 01:45:50;;;;;;;2.10;1.20;;;;;;;25.81;44.26;99222.13;4808265;29;20231;-84
2023/09/02 01:48:18;;;;;;;2.67;1.30;;;;;;;25.79;44.34;99225.97;4809427;29;20258;-84
2023/09/02 01:50:45;;;;;;;3.50;1.43;;;;;;;25.75;44.26;99222.00;4809074;29;20277;-84
2023/09/02 01:53:10;;;;;;;2.50;1.53;;;;;;;25.72;44.28;99219.66;4808922;29;20187;-84
2023/09/02 01:55:38;;;;;;;2.23;1.10;;;;;;;25.68;44.14;99219.19;4809005;29;20673;-84
2023/09/02 01:58:04;;;;;;;1.93;1.10;;;;;;;25.67;44.44;99222.88;4808944;29;20290;-84
2023/09/02 02:00:29;;;;;;;3.10;1.30;;;;;;;25.67;44.63;99224.72;4792930;29;20190;-84
2023/09/02 02:02:55;;;;;;;2.43;1.17;;;;;;;25.67;44.32;99222.88;4809116;29;20187;-84
2023/09/02 02:05:32;;;;;;;2.33;1.20;;;;;;;25.66;44.59;99226.53;4792886;29;20198;-84
2023/09/02 02:08:04;;;;;;;3.33;1.33;;;;;;;25.63;45.39;99225.06;4792629;29;20665;-84
2023/09/02 02:10:32;;;;;;;1.50;1.00;;;;;;;25.62;45.77;99218.03;4808858;29;20175;-84
2023/09/02 02:13:01;;;;;;;2.27;1.03;;;;;;;25.62;45.86;99222.56;4809203;29;20186;-84
2023/09/02 02:15:29;;;;;;;2.70;1.40;;;;;;;25.57;45.99;99224.94;4808855;29;20259;-84
2023/09/02 02:17:55;;;;;;;4.60;1.33;;;;;;;25.52;45.94;99213.88;4808553;29;20286;-84
2023/09/02 02:20:21;;;;;;;2.83;1.47;;;;;;;25.51;45.94;99213.03;4808849;29;20255;-84
2023/09/02 02:22:46;;;;;;;3.10;1.33;;;;;;;25.55;45.25;99217.03;4808716;29;20194;-84
2023/09/02 02:25:13;;;;;;;3.30;1.17;;;;;;;25.45;45.11;99218.19;4808556;29;20186;-84
2023/09/02 02:27:39;;;;;;;2.40;1.30;;;;;;;25.38;45.13;99219.91;4808439;29;20278;-84
2023/09/02 02:30:06;;;;;;;2.70;1.50;;;;;;;25.29;45.41;99223.66;4792752;29;20190;-84
2023/09/02 02:32:33;;;;;;;6.10;1.80;;;;;;;25.29;45.48;99218.28;4808318;29;20190;-84
2023/09/02 02:35:01;;;;;;;2.57;1.50;;;;;;;25.25;45.34;99219.63;4792285;29;20210;-84
2023/09/02 02:37:27;;;;;;;2.37;1.20;;;;;;;25.22;45.52;99215.44;4808288;29;20269;-84
2023/09/02 02:39:53;;;;;;;2.53;1.20;;;;;;;25.20;45.40;99209.41;4808786;29;20182;-84
2023/09/02 02:42:20;;;;;;;3.23;1.20;;;;;;;25.19;45.43;99217.59;4808005;29;20182;-84
2023/09/02 02:44:47;;;;;;;2.50;1.40;;;;;;;25.20;45.33;99213.94;4808402;29;20201;-84
2023/09/02 02:47:13;;;;;;;4.40;1.50;;;;;;;25.21;45.49;99212.94;4808033;29;20182;-84
2023/09/02 02:49:40;;;;;;;3.30;1.50;;;;;;;25.22;45.58;99214.59;4808124;29;20187;-84
2023/09/02 02:52:07;;;;;;;2.47;1.23;;;;;;;25.17;45.72;99217.78;4808008;29;20201;-84
2023/09/02 02:54:36;;;;;;;3.20;1.50;;;;;;;25.18;45.50;99219.47;4808463;29;20197;-84
2023/09/02 02:57:02;;;;;;;2.30;1.43;;;;;;;25.23;45.25;99216.28;4791806;29;20234;-84
2023/09/02 02:59:27;;;;;;;2.87;1.13;;;;;;;25.21;45.28;99218.28;4792271;29;20558;-84
2023/09/02 03:01:53;;;;;;;3.10;1.40;;;;;;;25.20;45.31;99216.59;4807887;29;20261;-84
2023/09/02 03:04:19;;;;;;;2.60;1.40;;;;;;;25.21;45.51;99226.34;4807622;29;20676;-84
2023/09/02 03:06:46;;;;;;;3.47;1.47;;;;;;;25.13;45.57;99223.69;4807772;29;20247;-84
2023/09/02 03:09:13;;;;;;;2.47;1.27;;;;;;;25.10;46.06;99232.06;4808172;29;20725;-84
2023/09/02 03:11:39;;;;;;;2.97;1.50;;;;;;;25.08;45.99;99234.91;4807660;29;20199;-84
2023/09/02 03:14:04;;;;;;;2.70;1.30;;;;;;;25.10;45.96;99232.06;4807892;29;20280;-84
2023/09/02 03:16:32;;;;;;;2.77;1.40;;;;;;;25.09;46.84;99235.75;4807645;29;20717;-84
2023/09/02 03:18:58;;;;;;;3.43;1.37;;;;;;;25.04;46.98;99238.94;4807599;29;20249;-84
2023/09/02 03:21:24;;;;;;;3.77;1.67;;;;;;;24.98;47.70;99240.44;4807542;29;20331;-84
2023/09/02 03:23:50;;;;;;;2.97;1.67;;;;;;;24.83;48.07;99242.16;4807467;29;20201;-84
2023/09/02 03:26:17;;;;;;;3.67;1.90;;;;;;;24.71;48.41;99246.13;4807539;29;20182;-84
2023/09/02 03:28:44;;;;;;;2.67;1.47;;;;;;;24.56;48.34;99238.91;4807240;29;20560;-84
2023/09/02 03:31:11;;;;;;;5.67;1.70;;;;;;;24.49;48.80;99244.13;4807649;29;20182;-84
2023/09/02 03:33:38;;;;;;;3.17;1.83;;;;;;;24.49;48.91;99251.31;4806718;29;20195;-84
2023/09/02 03:36:03;;;;;;;3.17;1.63;;;;;;;24.48;49.08;99244.25;4807317;29;20652;-84
2023/09/02 03:38:29;;;;;;;3.00;1.60;;;;;;;24.47;49.61;99262.22;4807517;29;20261;-84
2023/09/02 03:40:56;;;;;;;4.17;1.90;;;;;;;24.40;49.93;99256.66;4807247;29;20186;-84
2023/09/02 03:43:23;;;;;;;4.37;1.53;;;;;;;24.37;50.47;99258.84;4806009;29;20293;-84
2023/09/02 03:45:49;;;;;;;3.13;1.67;;;;;;;24.30;50.88;99255.97;4807120;29;20182;-85
2023/09/02 03:48:19;;;;;;;2.67;1.40;;;;;;;24.26;50.56;99259.16;4806907;29;20207;-85
2023/09/02 03:51:16;;;;;;;2.60;1.50;;;;;;;24.17;50.67;99257.44;4807328;29;20189;-85
2023/09/02 03:53:43;;;;;;;6.13;1.60;;;;;;;24.10;51.41;99253.75;4807776;29;20588;-84
2023/09/02 03:56:09;;;;;;;5.67;1.50;;;;;;;24.06;51.57;99257.72;4806958;29;20182;-84
2023/09/02 03:58:35;;;;;;;2.83;1.40;;;;;;;24.02;51.49;99267.09;4806737;29;20716;-84
2023/09/02 04:01:01;;;;;;;2.90;1.73;;;;;;;23.97;51.59;99262.22;4806759;29;20649;-84
2023/09/02 04:03:29;;;;;;;3.43;1.93;;;;;;;23.88;51.80;99257.81;4790881;29;20190;-84
2023/09/02 04:05:56;;;;;;;3.23;1.90;;;;;;;23.87;51.77;99258.84;4806789;29;20202;-84
2023/09/02 04:08:27;;;;;;;3.77;1.87;;;;;;;23.83;52.61;99269.03;4806907;29;20293;-84
2023/09/02 04:10:55;;;;;;;3.67;1.73;;;;;;;23.81;53.50;99265.69;4806781;29;20201;-84
2023/09/02 04:13:26;;;;;;;6.90;1.67;;;;;;;23.79;53.24;99264.97;4805862;29;20274;-83
2023/09/02 04:16:02;;;;;;;2.93;1.30;;;;;;;23.84;53.04;99267.19;4806860;29;20193;-84
2023/09/02 04:18:32;;;;;;;3.30;1.37;;;;;;;23.83;52.62;99270.84;4805601;29;20186;-84
2023/09/02 04:21:03;;;;;;;6.37;1.67;;;;;;;23.83;52.94;99271.69;4806591;29;20190;-84
2023/09/02 04:23:28;;;;;;;3.17;1.80;;;;;;;23.82;52.37;99277.19;4805421;29;20613;-84
2023/09/02 04:25:56;;;;;;;3.67;1.60;;;;;;;23.83;52.80;99279.72;4806455;29;20196;-84
2023/09/02 04:28:21;;;;;;;7.47;2.07;;;;;;;23.88;53.61;99270.38;4806321;29;20207;-84
2023/09/02 04:30:49;;;;;;;4.93;2.00;;;;;;;23.83;54.13;99279.72;4806209;29;20201;-84
2023/09/02 04:33:16;;;;;;;5.57;1.70;;;;;;;23.80;54.72;99277.38;4806314;29;20190;-84
2023/09/02 04:35:45;;;;;;;5.53;1.73;;;;;;;23.87;54.26;99284.78;4805246;29;20234;-84
2023/09/02 04:38:12;;;;;;;3.33;1.60;;;;;;;23.94;54.55;99280.44;4806530;29;20243;-84
2023/09/02 04:40:43;;;;;;;5.00;1.83;;;;;;;24.02;54.57;99281.31;4806519;29;20197;-84
2023/09/02 04:43:10;;;;;;;2.87;1.50;;;;;;;24.15;53.43;99275.53;4806369;29;20181;-84
2023/09/02 04:45:39;;;;;;;3.37;1.57;;;;;;;24.26;52.78;99280.59;4806212;29;20193;-84
2023/09/02 04:48:07;;;;;;;4.60;1.90;;;;;;;24.41;54.12;99284.28;4806077;29;20210;-84
2023/09/02 04:50:35;;;;;;;3.00;1.50;;;;;;;24.61;53.41;99285.66;4806396;29;20265;-84
2023/09/02 04:53:02;;;;;;;3.63;1.83;;;;;;;24.78;52.95;99281.16;4806364;29;20178;-84
2023/09/02 04:55:29;;;;;;;3.37;1.60;;;;;;;24.79;51.18;99272.97;4805844;29;20186;-84
2023/09/02 04:57:57;;;;;;;4.60;2.33;;;;;;;24.85;51.60;99272.31;4805810;29;20240;-84
2023/09/02 05:00:25;;;;;;;3.60;2.17;;;;;;;24.88;51.22;99269.28;4806496;29;20209;-84
2023/09/02 05:02:52;;;;;;;3.47;1.90;;;;;;;25.00;51.28;99275.97;4805970;29;20216;-84
2023/09/02 05:05:21;;;;;;;4.67;1.83;;;;;;;25.19;50.66;99266.75;4805940;29;20194;-84
2023/09/02 05:07:48;;;;;;;2.53;1.40;;;;;;;25.34;50.74;99269.59;4805150;29;20642;-84
2023/09/02 05:10:15;;;;;;;5.73;2.10;;;;;;;25.43;51.32;99265.84;4790068;29;20190;-84
2023/09/02 05:12:41;;;;;;;7.30;1.73;;;;;;;25.48;51.42;99268.91;4805926;29;20186;-84
2023/09/02 05:15:08;;;;;;;4.40;2.37;;;;;;;25.58;51.42;99274.91;4806120;29;20197;-84
2023/09/02 05:17:35;;;;;;;3.80;1.87;;;;;;;25.72;51.40;99282.25;4804984;29;20204;-84
2023/09/02 05:20:04;;;;;;;4.23;2.07;;;;;;;25.82;51.34;99277.50;4805882;29;20190;-84
2023/09/02 05:22:29;;;;;;;5.37;1.60;;;;;;;25.94;51.66;99281.47;4805018;29;20186;-84
2023/09/02 05:24:56;;;;;;;2.87;1.70;;;;;;;26.07;51.90;99281.75;4797350;29;20285;-84
2023/09/02 05:27:23;;;;;;;4.90;2.03;;;;;;;26.09;51.54;99284.28;4787813;30;20191;-84
2023/09/02 05:29:49;;;;;;;7.10;2.20;;;;;;;26.17;51.67;99281.59;4791610;29;20190;-84
2023/09/02 05:32:17;;;;;;;4.03;1.77;;;;;;;26.35;51.06;99273.25;4805799;29;20178;-84
2023/09/02 05:34:43;;;;;;;11.23;2.13;;;;;;;26.68;51.05;99277.38;4789793;29;20587;-84
2023/09/02 05:37:09;;;;;;;2.73;1.67;;;;;;;26.94;50.79;99274.38;4789855;29;20540;-84
2023/09/02 05:39:34;;;;;;;7.28;2.42;;;;;;;27.09;48.60;99268.00;4805696;29;20228;-84
2023/09/02 05:41:59;;;;;;;4.37;1.50;;;;;;;27.10;47.79;99282.28;4806232;29;20182;-85
2023/09/02 05:44:25;;;;;;;3.13;1.80;;;;;;;27.26;47.31;99276.75;4805981;29;20179;-84
2023/09/02 05:46:50;;;;;;;2.70;1.33;;;;;;;27.40;46.27;99279.50;4789734;29;20307;-84
2023/09/02 05:49:16;;;;;;;3.37;1.53;;;;;;;27.51;45.80;99272.81;4804678;29;20213;-84
2023/09/02 05:51:42;;;;;;;3.00;1.13;;;;;;;27.61;43.04;99277.94;4802845;29;20219;-84
2023/09/02 05:54:09;;;;;;;3.00;1.38;;;;;;;27.79;42.46;99278.38;4787612;29;20222;-85
2023/09/02 05:56:35;;;;;;;3.30;1.60;;;;;;;28.06;42.17;99276.91;4804313;29;20505;-84
2023/09/02 05:59:02;;;;;;;3.25;1.73;;;;;;;28.36;41.44;99281.19;4805482;29;20693;-84
2023/09/02 06:01:27;;;;;;;5.63;2.75;;;;;;;28.64;40.88;99285.69;4788035;29;20637;-84
2023/09/02 06:03:53;;;;;;;3.60;1.70;;;;;;;28.87;40.14;99288.22;4787264;29;20277;-85
2023/09/02 06:06:18;;;;;;;4.97;2.15;;;;;;;29.26;39.27;99289.59;4781166;29;20190;-84
2023/09/02 06:08:45;;;;;;;3.17;1.40;;;;;;;29.63;38.45;99295.47;4792154;29;20219;-84
2023/09/02 06:11:11;;;;;;;4.35;1.90;;;;;;;30.00;38.46;99296.13;4803940;29;20198;-84
2023/09/02 06:13:36;;;;;;;3.22;1.90;;;;;;;30.21;37.73;99291.44;4776894;29;20203;-84
2023/09/02 06:16:04;;;;;;;2.63;1.25;;;;;;;30.49;37.36;99291.34;4805140;29;20194;-84
2023/09/02 06:18:32;;;;;;;2.55;1.40;;;;;;;30.71;36.75;99284.75;4793861;29;20348;-85
2023/09/02 06:20:57;;;;;;;2.55;1.55;;;;;;;30.96;36.24;99299.38;4809047;29;20205;-85
2023/09/02 06:23:25;;;;;;;3.20;1.60;;;;;;;31.41;36.13;99291.44;4807884;29;20190;-85
2023/09/02 06:26:00;;;;;;;2.10;1.13;;;;;;;31.99;34.86;99295.09;4792686;29;20194;-84
2023/09/02 06:28:28;;;;;;;3.10;1.50;;;;;;;32.50;34.15;99309.50;4807706;29;20645;-85
2023/09/02 06:30:54;;;;;;;6.43;1.60;;;;;;;32.81;33.01;99306.00;4808568;29;20238;-86
2023/09/02 06:33:22;;;;;;;5.25;1.60;;;;;;;32.98;31.96;99312.59;4807697;29;20553;-85
2023/09/02 06:35:49;;;;;;;2.75;1.45;;;;;;;33.31;33.04;99305.03;4796886;29;20634;-85
2023/09/02 06:38:15;;;;;;;3.42;1.38;;;;;;;33.40;32.46;99316.44;4790524;29;20195;-85
2023/09/02 06:40:40;;;;;;;3.70;1.38;;;;;;;33.75;31.45;99308.63;4789367;29;20195;-85
2023/09/02 06:43:07;;;;;;;4.20;1.60;;;;;;;34.16;31.51;99316.97;4790685;29;20195;-85
2023/09/02 06:45:34;;;;;;;3.08;1.50;;;;;;;34.42;30.11;99316.63;4807815;29;20594;-85
2023/09/02 06:48:00;;;;;;;2.45;1.10;;;;;;;34.62;30.51;99315.56;4791833;29;20229;-85
2023/09/02 06:50:27;;;;;;;2.58;1.60;;;;;;;34.86;30.04;99311.84;4790034;29;20689;-85
2023/09/02 06:52:53;;;;;;;5.25;1.70;;;;;;;35.02;29.70;99311.16;4801911;29;20202;-85
2023/09/02 06:55:18;;;;;;;1.70;1.15;;;;;;;35.25;29.08;99313.16;4792136;29;20518;-85
2023/09/02 06:57:45;;;;;;;2.22;1.13;;;;;;;35.45;29.32;99311.75;4806546;29;20649;-85
2023/09/02 07:00:12;;;;;;;4.15;1.92;;;;;;;35.58;29.07;99311.53;4791832;29;20575;-85
2023/09/02 07:02:38;;;;;;;4.78;1.38;;;;;;;35.70;28.44;99317.81;4797365;29;20191;-86
2023/09/02 07:05:06;;;;;;;3.45;1.42;;;;;;;35.83;28.67;99310.44;4806779;29;20730;-86
2023/09/02 07:07:31;;;;;;;7.20;1.30;;;;;;;36.01;28.00;99315.81;4791552;29;20281;-86
2023/09/02 07:09:57;;;;;;;3.08;1.58;;;;;;;36.09;28.34;99310.78;4791788;29;20273;-85
2023/09/02 07:12:24;;;;;;;5.53;1.50;;;;;;;36.20;28.23;99314.56;4791730;29;20210;-86
2023/09/02 07:14:51;;;;;;;2.97;1.40;;;;;;;35.66;27.32;99303.00;4782593;29;20263;-86
2023/09/02 07:17:16;;;;;;;3.60;1.20;;;;;;;35.20;29.54;99313.84;4803643;29;20200;-85
2023/09/02 07:19:42;;;;;;;4.40;1.45;;;;;;;35.14;28.13;99314.81;4809687;29;20186;-87
2023/09/02 07:22:07;;;;;;;2.58;1.23;;;;;;;35.17;29.12;99311.59;4808107;29;20185;-86
2023/09/02 07:24:33;;;;;;;2.67;1.10;;;;;;;35.24;29.99;99312.31;4789184;30;20207;-86
2023/09/02 07:26:58;;;;;;;4.43;1.30;;;;;;;35.37;28.99;99317.56;4789166;30;20252;-86
2023/09/02 07:29:23;;;;;;;3.47;1.10;;;;;;;35.30;28.81;99310.56;4805835;29;20202;-87
2023/09/02 07:31:49;;;;;;;3.72;1.60;;;;;;;35.09;28.87;99317.41;4790639;29;20182;-85
2023/09/02 07:34:14;;;;;;;3.80;1.10;;;;;;;35.11;28.81;99315.28;4807334;29;20178;-86
2023/09/02 07:36:41;;;;;;;5.78;1.30;;;;;;;35.23;29.04;99313.38;4807342;29;20255;-86
2023/09/02 07:39:07;;;;;;;2.33;1.10;;;;;;;35.46;28.50;99312.56;4807163;29;20238;-86
2023/09/02 07:41:32;;;;;;;3.20;1.10;;;;;;;35.46;28.53;99301.66;4788335;29;20277;-86
2023/09/02 07:43:58;;;;;;;3.05;0.90;;;;;;;35.57;28.33;99303.59;4789102;30;20518;-85
2023/09/02 07:46:25;;;;;;;2.80;1.25;;;;;;;35.70;27.88;99304.19;4788784;30;20658;-86
2023/09/02 07:48:51;;;;;;;3.25;1.27;;;;;;;35.60;28.01;99305.84;4789067;30;20708;-86
2023/09/02 07:51:17;;;;;;;3.28;1.25;;;;;;;35.54;28.67;99302.16;4788929;30;20183;-86
2023/09/02 07:53:51;;;;;;;8.93;2.00;;;;;;;35.71;27.53;99305.84;4788772;30;20194;-86
2023/09/02 07:56:17;;;;;;;2.38;0.90;;;;;;;35.46;28.42;99302.47;4788640;30;20198;-86
2023/09/02 07:58:46;;;;;;;2.30;1.05;;;;;;;35.52;27.96;99307.00;4788622;29;20223;-86
2023/09/02 08:01:12;;;;;;;2.47;1.02;;;;;;;35.26;28.33;99312.91;4772960;30;20187;-86
2023/09/02 08:03:38;;;;;;;1.73;0.93;;;;;;;35.22;28.16;99306.28;4774094;29;20179;-86
2023/09/02 08:06:08;;;;;;;1.90;0.80;;;;;;;35.36;27.86;99315.03;4790744;29;20193;-86
2023/09/02 08:12:07;;;;;;;5.35;1.38;;;;;;;34.94;28.07;99308.78;4716149;30;20697;-86
2023/09/02 08:14:33;;;;;;;1.60;0.68;;;;;;;35.01;28.81;99314.97;4716141;30;20174;-86
2023/09/02 08:16:59;;;;;;;1.75;0.90;;;;;;;35.28;28.00;99309.94;4781779;29;20671;-87
2023/09/02 08:19:24;;;;;;;2.00;0.93;;;;;;;35.41;27.82;99313.28;4796175;29;20187;-87
2023/09/02 08:21:49;;;;;;;2.15;1.00;;;;;;;35.35;27.09;99305.22;4801238;29;20637;-87
2023/09/02 08:24:16;;;;;;;4.47;1.20;;;;;;;35.19;27.40;99307.56;4789913;29;20232;-88
2023/09/02 08:26:42;;;;;;;2.22;1.10;;;;;;;35.48;27.70;99305.84;4789447;29;20705;-88
2023/09/02 08:29:08;;;;;;;2.67;1.05;;;;;;;35.51;26.62;99316.25;4790380;29;20237;-87
2023/09/02 08:31:35;;;;;;;1.83;1.08;;;;;;;35.47;27.79;99306.06;4780901;30;20219;-88
2023/09/02 08:34:02;;;;;;;3.90;1.48;;;;;;;35.47;28.16;99315.06;4802463;29;20642;-87
2023/09/02 08:36:28;;;;;;;2.10;1.10;;;;;;;35.65;27.80;99306.78;4805503;29;20183;-87
2023/09/02 08:38:55;;;;;;;3.08;1.05;;;;;;;35.46;27.83;99305.22;4806350;29;20217;-86
2023/09/02 08:41:29;;;;;;;3.65;1.10;;;;;;;35.27;29.02;99303.69;4785098;30;20187;-86
2023/09/02 08:43:55;;;;;;;2.50;1.20;;;;;;;35.56;27.77;99301.94;4790237;29;20182;-87
2023/09/02 08:46:26;;;;;;;2.28;1.15;;;;;;;35.78;26.92;99301.09;4778265;29;20202;-86
2023/09/02 08:48:56;;;;;;;2.63;1.23;;;;;;;36.01;27.09;99304.91;4796027;29;20207;-86
2023/09/02 08:51:24;;;;;;;2.67;1.00;;;;;;;36.11;26.05;99299.66;4787927;29;20646;-87
2023/09/02 08:53:52;;;;;;;3.40;0.95;;;;;;;35.86;27.23;99296.31;4787997;29;20203;-87
2023/09/02 08:56:24;;;;;;;2.00;1.08;;;;;;;36.03;26.98;99300.84;4786726;30;20686;-87
2023/09/02 08:58:53;;;;;;;2.00;1.05;;;;;;;36.12;26.54;99295.81;4794755;29;20230;-87
2023/09/02 09:01:20;;;;;;;3.33;1.20;;;;;;;36.31;27.12;99300.06;4805366;29;20270;-88
2023/09/02 09:03:52;;;;;;;2.72;1.05;;;;;;;36.45;27.30;99295.97;4786788;29;20214;-87
2023/09/02 09:06:22;;;;;;;2.92;1.08;;;;;;;35.94;25.80;99288.59;4797039;29;20194;-87
2023/09/02 09:08:49;;;;;;;2.47;1.00;;;;;;;35.89;26.50;99296.69;4800780;29;20688;-87
2023/09/02 09:11:21;;;;;;;4.95;1.15;;;;;;;36.09;26.80;99288.94;4799085;29;20190;-87
2023/09/02 09:13:49;;;;;;;2.15;1.00;;;;;;;36.11;26.99;99289.53;4805288;29;20194;-87
2023/09/02 09:16:24;;;;;;;2.25;1.13;;;;;;;35.79;26.38;99291.00;4805218;29;20197;-88
2023/09/02 09:18:51;;;;;;;2.70;1.15;;;;;;;35.94;26.56;99293.22;4804904;29;20193;-87
2023/09/02 09:21:17;;;;;;;3.15;1.30;;;;;;;36.15;26.27;99287.16;4804920;29;20274;-87
2023/09/02 09:23:44;;;;;;;4.60;1.38;;;;;;;36.32;25.81;99285.34;4805165;29;20190;-87
2023/09/02 09:26:14;;;;;;;3.13;1.63;;;;;;;36.49;26.45;99283.50;4804586;29;20178;-86
2023/09/02 09:28:53;;;;;;;2.60;1.10;;;;;;;36.69;25.52;99286.59;4789784;29;20698;-87
2023/09/02 09:31:21;;;;;;;3.30;1.50;;;;;;;36.06;26.18;99283.16;4789886;29;20258;-87
2023/09/02 09:34:01;;;;;;;2.03;1.20;;;;;;;36.33;25.98;99276.88;4805752;29;20183;-86
2023/09/02 09:36:29;;;;;;;2.92;1.08;;;;;;;36.61;26.00;99278.81;4804875;29;20544;-86
2023/09/02 09:38:57;;;;;;;2.13;1.08;;;;;;;36.76;25.79;99275.53;4805719;29;20187;-87
2023/09/02 09:41:25;;;;;;;1.98;1.15;;;;;;;36.85;25.96;99268.56;4790575;29;20202;-87
2023/09/02 09:44:13;;;;;;;2.90;1.08;;;;;;;36.86;26.08;99268.34;4793570;29;20210;-87
2023/09/02 09:46:52;;;;;;;3.40;1.50;;;;;;;36.57;25.95;99274.91;4787506;29;20182;-86
2023/09/02 09:49:32;;;;;;;2.05;1.15;;;;;;;36.57;26.08;99260.44;4798794;29;20222;-86
2023/09/02 09:52:07;;;;;;;2.17;1.00;;;;;;;36.22;25.59;99264.09;4788440;30;20183;-88
2023/09/02 09:54:48;;;;;;;2.47;1.30;;;;;;;36.12;26.09;99269.38;4774071;30;20197;-86
2023/09/02 09:57:35;;;;;;;3.45;1.20;;;;;;;36.14;25.56;99260.94;4789694;29;20274;-87
2023/09/02 10:00:01;;;;;;;4.05;1.33;;;;;;;36.31;25.93;99261.81;4792680;29;20187;-88
2023/09/02 10:02:26;;;;;;;2.80;1.45;;;;;;;36.24;25.38;99256.50;4802941;29;20193;-86
2023/09/02 10:04:54;;;;;;;2.53;1.20;;;;;;;36.36;25.04;99251.00;4798768;29;20187;-87
2023/09/02 10:07:31;;;;;;;1.95;1.00;;;;;;;36.65;26.03;99258.13;4792444;29;20187;-86
2023/09/02 10:09:59;;;;;;;2.65;1.15;;;;;;;36.77;24.94;99252.59;4793840;29;20222;-87
2023/09/02 10:12:24;;;;;;;2.70;1.20;;;;;;;36.67;25.84;99250.50;4803513;29;20233;-86
2023/09/02 10:14:51;;;;;;;3.83;1.63;;;;;;;36.37;25.59;99260.84;4783372;30;20282;-86
2023/09/02 10:17:18;;;;;;;2.03;1.17;;;;;;;36.54;26.26;99250.00;4790206;29;20649;-86
2023/09/02 10:19:46;;;;;;;3.13;1.50;;;;;;;36.71;25.33;99243.50;4808607;29;20603;-86
2023/09/02 10:22:18;;;;;;;2.85;1.13;;;;;;;36.83;24.80;99246.97;4808530;29;20273;-86
2023/09/02 10:25:07;;;;;;;2.45;1.08;;;;;;;37.07;24.63;99234.00;4794269;29;20289;-87
2023/09/02 10:27:40;;;;;;;5.35;1.48;;;;;;;37.01;25.11;99245.94;4792220;29;20193;-86
2023/09/02 10:30:23;;;;;;;1.88;1.08;;;;;;;36.99;24.91;99248.09;4808638;29;20254;-86
2023/09/02 10:32:59;;;;;;;2.78;1.00;;;;;;;37.40;25.63;99239.47;4796208;29;20277;-87
2023/09/02 10:35:30;;;;;;;2.42;1.40;;;;;;;37.25;24.41;99235.66;4808273;29;20190;-86
2023/09/02 10:38:04;;;;;;;2.17;1.10;;;;;;;37.55;23.67;99241.59;4806278;29;20218;-87
2023/09/02 10:40:37;;;;;;;2.40;1.02;;;;;;;37.89;22.79;99232.25;4774750;30;20194;-87
2023/09/02 10:43:03;;;;;;;2.33;0.85;;;;;;;37.50;24.91;99238.81;4775317;29;20195;-87
2023/09/02 10:45:30;;;;;;;2.95;1.30;;;;;;;37.82;24.21;99237.03;4805396;29;20199;-86
2023/09/02 10:47:57;;;;;;;2.25;1.08;;;;;;;38.20;23.18;99243.53;4798960;29;20786;-87
2023/09/02 10:50:23;;;;;;;3.40;1.52;;;;;;;38.11;24.01;99234.94;4791781;29;20548;-87
2023/09/02 10:52:53;;;;;;;4.63;1.27;;;;;;;38.33;24.84;99224.00;4801334;29;20202;-87
2023/09/02 10:55:21;;;;;;;1.88;1.10;;;;;;;38.53;23.69;99218.72;4791665;29;20676;-87
2023/09/02 10:57:56;;;;;;;2.00;1.00;;;;;;;38.48;24.10;99233.19;4807585;29;20321;-86
2023/09/02 11:00:29;;;;;;;1.73;0.93;;;;;;;38.38;23.19;99235.00;4780263;29;20229;-87
2023/09/02 11:02:58;;;;;;;3.60;1.60;;;;;;;38.34;23.04;99233.88;4807539;29;20226;-86
2023/09/02 11:05:30;;;;;;;2.95;1.25;;;;;;;38.04;23.05;99223.38;4806988;29;20264;-86
2023/09/02 11:07:56;;;;;;;3.35;1.40;;;;;;;37.86;23.69;99232.75;4808240;29;20710;-86
2023/09/02 11:10:54;;;;;;;3.08;1.20;;;;;;;38.28;24.25;99226.66;4793127;29;20203;-87
2023/09/02 11:13:20;;;;;;;2.65;1.27;;;;;;;38.48;22.84;99219.50;4789931;29;20711;-87
2023/09/02 11:16:14;;;;;;;3.70;1.40;;;;;;;37.96;23.31;99218.34;4800867;29;20190;-86
2023/09/02 11:18:40;;;;;;;2.50;1.20;;;;;;;38.34;23.24;99211.97;4802139;29;20206;-87
2023/09/02 11:21:06;;;;;;;3.33;1.40;;;;;;;38.53;21.88;99210.50;4805950;29;20194;-87
2023/09/02 11:23:35;;;;;;;3.85;1.45;;;;;;;38.17;22.59;99213.94;4805193;29;20351;-87
2023/09/02 11:26:07;;;;;;;3.60;1.50;;;;;;;37.83;21.76;99213.22;4825594;29;20177;-85
2023/09/02 11:28:33;;;;;;;5.22;1.83;;;;;;;38.07;22.49;99210.00;4816695;29;20640;-85
2023/09/02 11:31:14;;;;;;;2.70;1.50;;;;;;;38.23;22.35;99201.97;4806484;29;20661;-87
2023/09/02 11:33:46;;;;;;;4.13;1.48;;;;;;;38.16;23.13;99201.34;4807235;29;20177;-86
2023/09/02 11:36:18;;;;;;;2.50;1.38;;;;;;;38.50;22.26;99200.88;4807550;29;20251;-86
2023/09/02 11:38:45;;;;;;;4.75;1.50;;;;;;;38.61;22.03;99197.16;4806338;29;20645;-87
2023/09/02 11:41:22;;;;;;;2.90;1.42;;;;;;;38.57;21.80;99192.47;4806292;29;20587;-86
2023/09/02 11:43:48;;;;;;;2.90;1.20;;;;;;;38.58;21.50;99188.63;4807193;29;20186;-86